createdAt,value
2022-12-04T00:00:21.937Z,3.80
2022-12-04T00:02:52.112Z,3.71
2022-12-04T00:05:21.004Z,3.74
2022-12-04T00:07:50.030Z,3.77
2022-12-04T00:10:18.538Z,3.79
2022-12-04T00:12:48.066Z,3.77
2022-12-04T00:15:25.215Z,3.79
2022-12-04T00:17:56.353Z,3.72
2022-12-04T00:20:24.922Z,3.64
2022-12-04T00:22:54.413Z,3.69
2022-12-04T00:25:22.806Z,3.73
2022-12-04T00:27:51.690Z,3.73
2022-12-04T00:30:20.118Z,3.66
2022-12-04T00:32:49.098Z,3.63
2022-12-04T00:35:18.978Z,3.69
2022-12-04T00:37:47.588Z,3.66
2022-12-04T00:40:16.512Z,3.59
2022-12-04T00:42:45.741Z,3.61
2022-12-04T00:45:14.801Z,3.62
2022-12-04T00:47:43.784Z,3.62
2022-12-04T00:50:13.606Z,3.70
2022-12-04T00:52:43.633Z,3.72
2022-12-04T00:55:12.795Z,3.74
2022-12-04T00:57:42.274Z,3.72
2022-12-04T01:00:11.226Z,3.72
2022-12-04T01:02:40.299Z,3.74
2022-12-04T01:05:10.030Z,3.72
2022-12-04T01:07:38.618Z,3.72
2022-12-04T01:10:14.723Z,3.75
2022-12-04T01:12:43.217Z,3.77
2022-12-04T01:15:12.810Z,3.73
2022-12-04T01:17:41.904Z,3.59
2022-12-04T01:20:13.369Z,3.59
2022-12-04T01:22:41.813Z,3.60
2022-12-04T01:25:12.461Z,3.49
2022-12-04T01:27:41.116Z,3.48
2022-12-04T01:30:11.113Z,3.44
2022-12-04T01:32:39.974Z,3.43
2022-12-04T01:35:09.192Z,3.40
2022-12-04T01:37:38.078Z,3.39
2022-12-04T01:40:07.998Z,3.45
2022-12-04T01:42:38.998Z,3.56
2022-12-04T01:45:41.743Z,3.59
2022-12-04T01:48:19.850Z,3.62
2022-12-04T01:50:50.432Z,3.58
2022-12-04T01:53:20.445Z,3.63
2022-12-04T01:55:49.604Z,3.67
2022-12-04T01:58:27.351Z,3.71
2022-12-04T02:01:03.674Z,3.71
2022-12-04T02:03:36.060Z,3.69
2022-12-04T02:06:05.577Z,3.70
2022-12-04T02:08:35.723Z,3.74
2022-12-04T02:11:14.925Z,3.73
2022-12-04T02:13:53.706Z,3.69
2022-12-04T02:16:30.353Z,3.73
2022-12-04T02:19:07.530Z,3.72
2022-12-04T02:21:39.620Z,3.76
2022-12-04T02:24:26.606Z,3.69
2022-12-04T02:27:00.943Z,3.75
2022-12-04T02:29:38.738Z,3.74
2022-12-04T02:32:16.209Z,3.69
2022-12-04T02:34:50.509Z,3.62
2022-12-04T02:37:25.698Z,3.56
2022-12-04T02:40:01.328Z,3.52
2022-12-04T02:42:38.055Z,3.52
2022-12-04T02:45:11.294Z,3.50
2022-12-04T02:47:42.339Z,3.52
2022-12-04T02:50:14.493Z,3.62
2022-12-04T02:52:48.767Z,3.67
2022-12-04T02:55:23.029Z,3.67
2022-12-04T02:57:57.044Z,3.70
2022-12-04T03:00:29.568Z,3.62
2022-12-04T03:03:01.862Z,3.60
2022-12-04T03:05:39.625Z,3.54
2022-12-04T03:08:13.255Z,3.52
2022-12-04T03:10:47.645Z,3.52
2022-12-04T03:13:20.366Z,3.43
2022-12-04T03:15:55.115Z,3.41
2022-12-04T03:18:28.144Z,3.39
2022-12-04T03:21:03.973Z,3.49
2022-12-04T03:23:36.710Z,3.43
2022-12-04T03:26:11.494Z,3.56
2022-12-04T03:28:52.849Z,3.54
2022-12-04T03:31:29.219Z,3.48
2022-12-04T03:34:02.789Z,3.45
2022-12-04T03:36:37.115Z,3.51
2022-12-04T03:39:14.403Z,3.44
2022-12-04T03:41:55.694Z,3.39
2022-12-04T03:44:29.278Z,3.39
2022-12-04T03:47:05.684Z,3.44
2022-12-04T03:49:43.916Z,3.55
2022-12-04T03:52:18.573Z,3.52
2022-12-04T03:54:52.495Z,3.54
2022-12-04T03:57:25.959Z,3.58
2022-12-04T04:00:02.685Z,3.47
2022-12-04T04:02:37.554Z,3.47
2022-12-04T04:05:11.981Z,3.41
2022-12-04T04:07:45.339Z,3.45
2022-12-04T04:10:17.309Z,3.50
2022-12-04T04:13:12.594Z,3.43
2022-12-04T04:16:14.528Z,3.49
2022-12-04T04:19:03.030Z,3.51
2022-12-04T04:21:54.804Z,3.53
2022-12-04T04:24:31.944Z,3.46
2022-12-04T04:27:00.867Z,3.44
2022-12-04T04:29:29.703Z,3.47
2022-12-04T04:32:04.775Z,3.50
2022-12-04T04:34:46.285Z,3.52
2022-12-04T04:37:23.514Z,3.54
2022-12-04T04:39:58.320Z,3.56
2022-12-04T04:42:31.573Z,3.56
2022-12-04T04:45:05.735Z,3.57
2022-12-04T04:47:40.610Z,3.54
2022-12-04T04:50:14.011Z,3.41
2022-12-04T04:52:45.957Z,3.44
2022-12-04T04:55:15.682Z,3.52
2022-12-04T04:57:45.510Z,3.56
2022-12-04T05:00:17.390Z,3.56
2022-12-04T05:02:48.567Z,3.58
2022-12-04T05:05:19.413Z,3.58
2022-12-04T05:07:47.867Z,3.60
2022-12-04T05:10:16.906Z,3.63
2022-12-04T05:12:46.454Z,3.66
2022-12-04T05:15:15.544Z,3.60
2022-12-04T05:17:44.249Z,3.60
2022-12-04T05:20:13.523Z,3.64
2022-12-04T05:22:43.346Z,3.63
2022-12-04T05:25:12.556Z,3.56
2022-12-04T05:27:41.167Z,3.59
2022-12-04T05:30:12.236Z,3.51
2022-12-04T05:32:40.774Z,3.60
2022-12-04T05:35:11.621Z,3.59
2022-12-04T05:37:41.930Z,3.59
2022-12-04T05:40:12.579Z,3.65
2022-12-04T05:42:41.031Z,3.67
2022-12-04T05:45:10.183Z,3.59
2022-12-04T05:47:40.340Z,3.64
2022-12-04T05:50:10.034Z,3.65
2022-12-04T05:52:38.931Z,3.65
2022-12-04T05:55:08.166Z,3.61
2022-12-04T05:57:38.649Z,3.65
2022-12-04T06:00:08.940Z,3.69
2022-12-04T06:02:40.205Z,3.52
2022-12-04T06:05:09.288Z,3.70
2022-12-04T06:07:37.765Z,3.67
2022-12-04T06:10:08.434Z,3.70
2022-12-04T06:12:38.226Z,3.69
2022-12-04T06:15:08.355Z,3.68
2022-12-04T06:17:36.780Z,3.69
2022-12-04T06:20:11.412Z,3.65
2022-12-04T06:22:40.955Z,3.74
2022-12-04T06:25:10.172Z,3.69
2022-12-04T06:27:40.587Z,3.73
2022-12-04T06:30:10.571Z,3.76
2022-12-04T06:32:38.947Z,3.77
2022-12-04T06:35:08.661Z,3.73
2022-12-04T06:37:37.058Z,3.67
2022-12-04T06:40:07.793Z,3.66
2022-12-04T06:42:36.137Z,3.66
2022-12-04T06:45:08.194Z,3.60
2022-12-04T06:47:37.079Z,3.56
2022-12-04T06:50:06.354Z,3.54
2022-12-04T06:52:35.037Z,3.52
2022-12-04T06:55:04.248Z,3.57
2022-12-04T06:57:32.547Z,3.64
2022-12-04T07:00:01.283Z,3.68
2022-12-04T07:02:31.012Z,3.65
2022-12-04T07:04:59.764Z,3.68
2022-12-04T07:07:28.117Z,3.71
2022-12-04T07:10:00.187Z,3.75
2022-12-04T07:12:28.717Z,3.76
2022-12-04T07:14:57.064Z,3.69
2022-12-04T07:17:25.927Z,3.58
2022-12-04T07:19:56.092Z,3.50
2022-12-04T07:22:24.899Z,3.46
2022-12-04T07:24:53.427Z,3.44
2022-12-04T07:27:21.989Z,3.52
2022-12-04T07:29:52.731Z,3.52
2022-12-04T07:32:21.382Z,3.58
2022-12-04T07:34:49.755Z,3.54
2022-12-04T07:37:19.461Z,3.51
2022-12-04T07:39:48.009Z,3.57
2022-12-04T07:42:22.526Z,3.54
2022-12-04T07:44:52.418Z,3.51
2022-12-04T07:47:21.403Z,3.52
2022-12-04T07:49:49.738Z,3.50
2022-12-04T07:52:19.970Z,3.52
2022-12-04T07:54:48.862Z,3.54
2022-12-04T07:57:17.652Z,3.58
2022-12-04T07:59:46.487Z,3.67
2022-12-04T08:02:14.978Z,3.73
2022-12-04T08:04:44.369Z,3.76
2022-12-04T08:07:12.818Z,3.76
2022-12-04T08:09:43.066Z,3.77
2022-12-04T08:12:11.597Z,3.78
2022-12-04T08:14:40.179Z,3.69
2022-12-04T08:17:08.619Z,3.65
2022-12-04T08:19:37.269Z,3.73
2022-12-04T08:22:05.606Z,3.70
2022-12-04T08:24:34.839Z,3.79
2022-12-04T08:27:04.553Z,3.85
2022-12-04T08:29:33.220Z,3.92
2022-12-04T08:32:02.165Z,3.86
2022-12-04T08:34:30.602Z,3.80
2022-12-04T08:36:59.413Z,3.85
2022-12-04T08:39:27.834Z,3.87
2022-12-04T08:41:57.331Z,3.96
2022-12-04T08:44:27.930Z,3.98
2022-12-04T08:46:56.278Z,3.89
2022-12-04T08:49:25.152Z,3.82
2022-12-04T08:51:53.543Z,3.72
2022-12-04T08:54:22.975Z,3.79
2022-12-04T08:56:51.803Z,3.92
2022-12-04T08:59:20.238Z,4.04
2022-12-04T09:01:52.791Z,4.10
2022-12-04T09:04:21.898Z,4.14
2022-12-04T09:06:50.333Z,4.23
2022-12-04T09:09:19.085Z,4.27
2022-12-04T09:11:47.541Z,4.20
2022-12-04T09:14:16.357Z,4.05
2022-12-04T09:16:44.962Z,4.04
2022-12-04T09:19:15.173Z,4.03
2022-12-04T09:21:43.828Z,4.05
2022-12-04T09:24:12.645Z,4.14
2022-12-04T09:26:41.031Z,4.15
2022-12-04T09:29:11.616Z,4.12
2022-12-04T09:31:40.620Z,4.27
2022-12-04T09:34:09.012Z,4.37
2022-12-04T09:36:39.974Z,4.46
2022-12-04T09:39:08.434Z,4.47
2022-12-04T09:42:05.273Z,4.48
2022-12-04T09:44:37.065Z,4.42
2022-12-04T09:47:11.484Z,4.46
2022-12-04T09:49:43.045Z,4.48
2022-12-04T09:52:25.471Z,4.32
2022-12-04T09:54:54.923Z,4.33
2022-12-04T09:57:30.153Z,4.33
2022-12-04T09:59:58.964Z,4.49
2022-12-04T10:02:37.855Z,4.45
2022-12-04T10:05:08.446Z,4.43
2022-12-04T10:07:49.303Z,4.40
2022-12-04T10:10:24.898Z,4.47
2022-12-04T10:13:03.298Z,4.37
2022-12-04T10:15:40.118Z,4.42
2022-12-04T10:18:25.385Z,4.55
2022-12-04T10:21:07.558Z,4.66
2022-12-04T10:23:51.226Z,4.70
2022-12-04T10:26:25.009Z,4.63
2022-12-04T10:28:59.591Z,4.50
2022-12-04T10:31:29.572Z,4.63
2022-12-04T10:34:03.760Z,4.59
2022-12-04T10:36:34.485Z,4.64
2022-12-04T10:39:11.726Z,4.76
2022-12-04T10:41:47.722Z,4.56
2022-12-04T10:44:18.812Z,4.62
2022-12-04T10:46:47.445Z,4.73
2022-12-04T10:49:21.507Z,4.88
2022-12-04T10:51:50.933Z,4.92
2022-12-04T10:54:26.139Z,4.95
2022-12-04T10:56:56.869Z,5.05
2022-12-04T10:59:25.492Z,5.04
2022-12-04T11:02:06.288Z,5.02
2022-12-04T11:04:36.291Z,5.15
2022-12-04T11:07:09.033Z,5.18
2022-12-04T11:09:38.896Z,5.32
2022-12-04T11:12:11.040Z,5.45
2022-12-04T11:14:44.052Z,5.56
2022-12-04T11:17:19.115Z,5.65
2022-12-04T11:19:47.706Z,5.63
2022-12-04T11:22:18.791Z,5.62
2022-12-04T11:24:55.848Z,5.77
2022-12-04T11:27:27.610Z,5.95
2022-12-04T11:29:57.440Z,6.11
2022-12-04T11:32:29.365Z,6.15
2022-12-04T11:35:02.284Z,6.37
2022-12-04T11:37:36.474Z,6.63
2022-12-04T11:40:18.141Z,6.68
2022-12-04T11:42:59.071Z,6.92
2022-12-04T11:45:28.225Z,7.18
2022-12-04T11:47:58.613Z,7.24
2022-12-04T11:50:35.151Z,7.25
2022-12-04T11:53:11.833Z,7.26
2022-12-04T11:55:53.883Z,7.09
2022-12-04T11:58:42.905Z,7.03
2022-12-04T12:01:27.266Z,6.94
2022-12-04T12:04:25.124Z,6.90
2022-12-04T12:07:02.902Z,6.89
2022-12-04T12:09:42.667Z,6.89
2022-12-04T12:12:18.452Z,6.91
2022-12-04T12:15:06.228Z,6.88
2022-12-04T12:17:41.788Z,7.00
2022-12-04T12:20:18.912Z,7.22
2022-12-04T12:23:03.189Z,7.60
2022-12-04T12:25:39.207Z,7.93
2022-12-04T12:28:23.714Z,8.13
2022-12-04T12:31:07.629Z,8.18
2022-12-04T12:33:41.210Z,8.38
2022-12-04T12:36:12.068Z,8.56
2022-12-04T12:38:45.018Z,8.55
2022-12-04T12:41:16.789Z,8.54
2022-12-04T12:43:51.042Z,8.60
2022-12-04T12:46:27.583Z,8.71
2022-12-04T12:49:04.140Z,8.68
2022-12-04T12:51:38.319Z,8.61
2022-12-04T12:54:16.644Z,8.49
2022-12-04T12:56:51.838Z,8.44
2022-12-04T12:59:26.554Z,8.37
2022-12-04T13:02:01.067Z,8.36
2022-12-04T13:04:38.748Z,8.33
2022-12-04T13:07:24.349Z,8.29
2022-12-04T13:10:01.990Z,8.27
2022-12-04T13:12:33.312Z,8.23
2022-12-04T13:15:03.241Z,8.19
2022-12-04T13:17:38.659Z,8.11
2022-12-04T13:20:16.137Z,8.05
2022-12-04T13:22:58.425Z,7.95
2022-12-04T13:25:36.577Z,7.82
2022-12-04T13:28:17.300Z,7.77
2022-12-04T13:30:57.828Z,7.77
2022-12-04T13:33:51.196Z,7.76
2022-12-04T13:36:32.979Z,7.79
2022-12-04T13:39:24.861Z,7.77
2022-12-04T13:41:59.845Z,7.73
2022-12-04T13:44:29.530Z,7.66
2022-12-04T13:47:02.459Z,7.73
2022-12-04T13:49:33.262Z,7.71
2022-12-04T13:52:03.599Z,7.72
2022-12-04T13:54:34.737Z,7.68
2022-12-04T13:57:28.245Z,7.66
2022-12-04T14:00:06.679Z,7.60
2022-12-04T14:02:52.203Z,7.52
2022-12-04T14:05:28.796Z,7.55
2022-12-04T14:08:07.478Z,7.55
2022-12-04T14:10:39.892Z,7.52
2022-12-04T14:13:19.889Z,7.53
2022-12-04T14:15:49.305Z,7.50
2022-12-04T14:18:28.458Z,7.47
2022-12-04T14:21:01.476Z,7.48
2022-12-04T14:23:37.472Z,7.46
2022-12-04T14:26:07.006Z,7.47
2022-12-04T14:28:42.874Z,7.49
2022-12-04T14:31:21.121Z,7.50
2022-12-04T14:33:53.905Z,7.47
2022-12-04T14:36:26.885Z,7.44
2022-12-04T14:39:06.779Z,7.44
2022-12-04T14:41:35.393Z,7.31
2022-12-04T14:44:04.432Z,7.36
2022-12-04T14:46:41.266Z,7.35
2022-12-04T14:49:26.977Z,7.33
2022-12-04T14:52:02.683Z,7.32
2022-12-04T14:54:39.451Z,7.29
2022-12-04T14:57:28.230Z,7.31
2022-12-04T14:59:57.560Z,7.30
2022-12-04T15:02:34.994Z,7.28
2022-12-04T15:05:09.702Z,7.27
2022-12-04T15:07:46.159Z,7.25
2022-12-04T15:10:38.482Z,7.24
2022-12-04T15:13:06.902Z,7.19
2022-12-04T15:15:36.529Z,7.17
2022-12-04T15:18:12.558Z,7.16
2022-12-04T15:20:53.622Z,7.08
2022-12-04T15:23:30.328Z,6.99
2022-12-04T15:26:03.269Z,7.07
2022-12-04T15:28:35.896Z,7.05
2022-12-04T15:31:07.621Z,7.02
2022-12-04T15:33:39.355Z,7.00
2022-12-04T15:36:14.713Z,7.00
2022-12-04T15:38:43.681Z,6.91
2022-12-04T15:41:32.131Z,6.94
2022-12-04T15:44:01.386Z,6.91
2022-12-04T15:46:34.817Z,6.93
2022-12-04T15:49:08.454Z,6.94
2022-12-04T15:51:38.731Z,6.95
2022-12-04T15:54:14.792Z,6.96
2022-12-04T15:56:43.603Z,7.00
2022-12-04T15:59:18.185Z,6.96
2022-12-04T16:01:47.840Z,6.95
2022-12-04T16:04:24.276Z,6.86
2022-12-04T16:06:55.056Z,6.90
2022-12-04T16:09:25.517Z,7.02
2022-12-04T16:12:05.444Z,7.65
2022-12-04T16:14:33.831Z,7.55
2022-12-04T16:17:06.279Z,7.39
2022-12-04T16:19:37.240Z,7.22
2022-12-04T16:22:13.873Z,7.15
2022-12-04T16:24:42.498Z,7.07
2022-12-04T16:27:13.613Z,6.99
2022-12-04T16:29:42.013Z,6.93
2022-12-04T16:32:12.587Z,6.89
2022-12-04T16:34:41.578Z,6.84
2022-12-04T16:37:14.811Z,6.75
2022-12-04T16:39:44.101Z,6.71
2022-12-04T16:42:17.216Z,6.68
2022-12-04T16:44:47.352Z,6.67
2022-12-04T16:47:16.555Z,6.62
2022-12-04T16:49:46.322Z,6.51
2022-12-04T16:52:17.488Z,6.49
2022-12-04T16:54:46.978Z,6.43
2022-12-04T16:57:15.611Z,6.44
2022-12-04T16:59:44.455Z,6.47
2022-12-04T17:02:17.712Z,6.50
2022-12-04T17:04:46.500Z,6.47
2022-12-04T17:07:16.630Z,6.43
2022-12-04T17:09:45.018Z,6.38
2022-12-04T17:12:13.387Z,6.37
2022-12-04T17:14:42.109Z,6.34
2022-12-04T17:17:10.518Z,6.33
2022-12-04T17:19:38.878Z,6.32
2022-12-04T17:22:08.225Z,6.21
2022-12-04T17:24:43.644Z,6.24
2022-12-04T17:27:16.568Z,6.22
2022-12-04T17:29:45.861Z,6.14
2022-12-04T17:32:14.873Z,6.17
2022-12-04T17:34:43.282Z,6.15
2022-12-04T17:37:12.199Z,6.13
2022-12-04T17:39:41.904Z,6.13
2022-12-04T17:42:10.922Z,6.10
2022-12-04T17:44:39.278Z,6.08
2022-12-04T17:47:07.781Z,6.06
2022-12-04T17:49:36.903Z,6.06
2022-12-04T17:52:05.731Z,6.01
2022-12-04T17:54:34.968Z,6.02
2022-12-04T17:57:04.803Z,5.94
2022-12-04T17:59:34.016Z,5.93
2022-12-04T18:02:02.359Z,5.94
2022-12-04T18:04:31.155Z,5.96
2022-12-04T18:06:59.501Z,5.95
2022-12-04T18:09:28.462Z,5.95
2022-12-04T18:11:58.496Z,5.90
2022-12-04T18:14:29.792Z,5.89
2022-12-04T18:16:59.070Z,5.89
2022-12-04T18:19:31.021Z,5.84
2022-12-04T18:22:00.349Z,5.85
2022-12-04T18:24:29.175Z,5.77
2022-12-04T18:26:58.029Z,5.82
2022-12-04T18:29:28.306Z,5.83
2022-12-04T18:31:57.932Z,5.83
2022-12-04T18:34:26.552Z,5.90
2022-12-04T18:36:54.897Z,5.87
2022-12-04T18:39:26.089Z,5.85
2022-12-04T18:41:56.057Z,5.84
2022-12-04T18:44:26.268Z,5.87
2022-12-04T18:46:57.626Z,5.65
2022-12-04T18:49:26.018Z,5.85
2022-12-04T18:51:54.902Z,5.87
2022-12-04T18:54:25.063Z,5.88
2022-12-04T18:56:53.712Z,5.83
2022-12-04T18:59:24.251Z,5.85
2022-12-04T19:01:54.204Z,5.86
2022-12-04T19:04:25.748Z,5.86
2022-12-04T19:06:55.893Z,5.84
2022-12-04T19:12:16.220Z,5.81
2022-12-04T19:14:45.506Z,5.83
2022-12-04T19:17:14.401Z,5.73
2022-12-04T19:19:44.152Z,5.77
2022-12-04T19:22:13.550Z,5.78
2022-12-04T19:24:42.895Z,5.76
2022-12-04T19:27:12.091Z,5.80
2022-12-04T19:29:41.817Z,5.83
2022-12-04T19:32:12.009Z,5.85
2022-12-04T19:34:40.381Z,5.86
2022-12-04T19:37:11.293Z,5.87
2022-12-04T19:39:39.883Z,5.84
2022-12-04T19:42:08.550Z,5.85
2022-12-04T19:44:48.518Z,5.87
2022-12-04T19:47:19.588Z,5.87
2022-12-04T19:49:48.643Z,5.89
2022-12-04T19:52:18.716Z,5.86
2022-12-04T19:54:47.531Z,5.83
2022-12-04T19:57:16.001Z,5.84
2022-12-04T19:59:46.775Z,5.78
2022-12-04T20:02:16.485Z,5.61
2022-12-04T20:04:44.971Z,5.79
2022-12-04T20:07:13.367Z,5.70
2022-12-04T20:09:47.368Z,5.73
2022-12-04T20:12:19.344Z,5.69
2022-12-04T20:14:47.718Z,5.63
2022-12-04T20:17:16.490Z,5.54
2022-12-04T20:19:44.870Z,5.52
2022-12-04T20:22:13.309Z,5.50
2022-12-04T20:24:43.118Z,5.56
2022-12-04T20:27:11.463Z,5.55
2022-12-04T20:29:39.871Z,5.54
2022-12-04T20:32:08.319Z,5.51
2022-12-04T20:34:43.313Z,5.51
2022-12-04T20:37:12.166Z,5.48
2022-12-04T20:39:41.358Z,5.44
2022-12-04T20:42:11.377Z,5.39
2022-12-04T20:44:39.769Z,5.40
2022-12-04T20:47:08.152Z,5.40
2022-12-04T20:49:36.514Z,5.37
2022-12-04T20:52:05.379Z,5.34
2022-12-04T20:54:40.776Z,5.33
2022-12-04T20:57:11.725Z,5.31
2022-12-04T20:59:40.330Z,5.33
2022-12-04T21:02:08.744Z,5.30
2022-12-04T21:04:38.905Z,5.27
2022-12-04T21:07:08.030Z,5.15
2022-12-04T21:09:36.498Z,5.09
2022-12-04T21:12:26.709Z,4.98
2022-12-04T21:15:19.964Z,4.81
2022-12-04T21:17:48.330Z,4.76
2022-12-04T21:20:17.381Z,4.84
2022-12-04T21:22:46.635Z,4.85
2022-12-04T21:25:14.959Z,4.83
2022-12-04T21:27:43.898Z,4.85
2022-12-04T21:30:14.907Z,4.88
2022-12-04T21:32:43.574Z,4.86
2022-12-04T21:35:11.897Z,4.84
2022-12-04T21:37:40.844Z,4.81
2022-12-04T21:40:10.819Z,4.77
2022-12-04T21:42:39.377Z,4.73
2022-12-04T21:45:08.888Z,4.72
2022-12-04T21:47:39.014Z,4.67
2022-12-04T21:50:08.875Z,4.71
2022-12-04T21:52:37.222Z,4.63
2022-12-04T21:55:06.368Z,4.61
2022-12-04T21:57:34.889Z,4.55
2022-12-04T22:00:04.076Z,4.60
2022-12-04T22:02:34.940Z,4.59
2022-12-04T22:05:06.017Z,4.59
2022-12-04T22:07:34.664Z,4.64
2022-12-04T22:10:10.196Z,4.65
2022-12-04T22:12:49.433Z,4.66
2022-12-04T22:15:18.901Z,4.67
2022-12-04T22:17:47.788Z,4.67
2022-12-04T22:20:17.997Z,4.48
2022-12-04T22:22:46.958Z,4.67
2022-12-04T22:25:15.503Z,4.64
2022-12-04T22:27:43.978Z,4.58
2022-12-04T22:30:13.748Z,4.60
2022-12-04T22:32:42.202Z,4.59
2022-12-04T22:35:11.430Z,4.57
2022-12-04T22:37:44.584Z,4.58
2022-12-04T22:40:15.677Z,4.58
2022-12-04T22:42:44.513Z,4.60
2022-12-04T22:45:14.139Z,4.58
2022-12-04T22:47:42.678Z,4.58
2022-12-04T22:50:12.472Z,4.58
2022-12-04T22:52:42.157Z,4.59
2022-12-04T22:55:11.301Z,4.57
2022-12-04T22:57:40.210Z,4.51
2022-12-04T23:00:10.289Z,4.51
2022-12-04T23:02:39.527Z,4.53
2022-12-04T23:05:08.397Z,4.53
2022-12-04T23:07:37.932Z,4.47
2022-12-04T23:10:09.355Z,4.47
2022-12-04T23:12:38.206Z,4.44
2022-12-04T23:15:08.037Z,4.45
2022-12-04T23:17:36.561Z,4.43
2022-12-04T23:20:05.708Z,4.42
2022-12-04T23:22:34.128Z,4.43
2022-12-04T23:25:03.661Z,4.41
2022-12-04T23:27:33.702Z,4.45
2022-12-04T23:30:02.583Z,4.48
2022-12-04T23:32:31.352Z,4.46
2022-12-04T23:34:59.892Z,4.40
2022-12-04T23:37:28.247Z,4.40
2022-12-04T23:39:56.951Z,4.42
2022-12-04T23:42:25.531Z,4.46
2022-12-04T23:44:55.286Z,4.39
2022-12-04T23:47:24.120Z,4.41
2022-12-04T23:49:52.446Z,4.46
2022-12-04T23:52:21.319Z,4.49
2022-12-04T23:54:49.657Z,4.53
2022-12-04T23:57:18.539Z,4.55
2022-12-04T23:59:47.482Z,4.59
